Time;durP1;ratioP1;P1;durP2;ratioP2;P2;SDS_P1;SDS_P2;PMS_P1;PMS_P2;Temp;Humidity;BMP_temperature;BMP_pressure;BME280_temperature;BME280_humidity;BME280_pressure;Samples;Min_cycle;Max_cycle;Signal;HPM_P1;HPM_P2
2022/10/13 00:02:05;;;;;;;0.10;0.10;;;;;;;10.01;100.00;101888.69;5038129;28;20209;-72
2022/10/13 00:04:30;;;;;;;0.08;0.08;;;;;;;10.23;100.00;101892.75;5035977;28;20154;-72
2022/10/13 00:06:56;;;;;;;0.10;0.10;;;;;;;10.13;100.00;101849.50;5037758;28;20024;-73
2022/10/13 00:09:21;;;;;;;0.20;0.20;;;;;;;10.25;100.00;101857.75;5036745;28;20029;-73
2022/10/13 00:11:46;;;;;;;0.10;0.10;;;;;;;9.94;100.00;101855.09;5035700;28;20021;-72
2022/10/13 00:14:12;;;;;;;0.10;0.10;;;;;;;10.03;100.00;101859.06;5021505;28;20036;-72
2022/10/13 00:16:37;;;;;;;0.10;0.10;;;;;;;10.13;100.00;101867.41;5034129;28;20056;-72
2022/10/13 00:19:02;;;;;;;0.10;0.10;;;;;;;10.10;100.00;101867.59;5019639;28;20048;-73
2022/10/13 00:21:28;;;;;;;0.10;0.10;;;;;;;10.13;100.00;101845.94;5035322;28;20119;-74
2022/10/13 00:23:54;;;;;;;0.10;0.10;;;;;;;10.05;100.00;101849.97;5034413;28;20033;-71
2022/10/13 00:26:21;;;;;;;0.10;0.10;;;;;;;10.17;100.00;101853.75;5036127;28;20104;-73
2022/10/13 00:28:46;;;;;;;0.10;0.10;;;;;;;9.94;100.00;101841.69;5038786;28;20039;-73
2022/10/13 00:31:15;;;;;;;0.10;0.10;;;;;;;10.28;100.00;101842.38;5021581;28;20024;-72
2022/10/13 00:33:40;;;;;;;0.20;0.20;;;;;;;10.24;100.00;101839.94;5031983;28;20032;-74
2022/10/13 00:36:06;;;;;;;0.20;0.20;;;;;;;10.09;100.00;101823.81;5037897;28;20041;-72
2022/10/13 00:38:31;;;;;;;0.10;0.10;;;;;;;10.14;100.00;101836.94;5019886;28;20031;-73
2022/10/13 00:40:57;;;;;;;0.10;0.10;;;;;;;10.19;100.00;101840.22;5025394;28;20108;-72
2022/10/13 00:43:25;;;;;;;0.10;0.10;;;;;;;9.95;100.00;101819.28;5039245;28;20391;-74
2022/10/13 00:45:51;;;;;;;0.10;0.10;;;;;;;9.87;100.00;101818.84;5034642;28;20029;-73
2022/10/13 00:48:20;;;;;;;0.20;0.20;;;;;;;10.27;100.00;101850.50;5021989;28;20028;-73
2022/10/13 00:50:45;;;;;;;0.10;0.10;;;;;;;10.14;100.00;101839.63;5038052;28;20393;-73
2022/10/13 00:53:11;;;;;;;0.10;0.10;;;;;;;10.35;100.00;101862.47;5021387;28;20064;-72
2022/10/13 00:55:37;;;;;;;0.20;0.20;;;;;;;10.23;100.00;101848.94;5040093;28;20471;-72
2022/10/13 00:58:05;;;;;;;0.13;0.13;;;;;;;10.23;100.00;101849.81;5038803;28;20187;-72
2022/10/13 01:00:32;;;;;;;0.10;0.10;;;;;;;10.05;100.00;101839.25;5025196;22;20495;-73
2022/10/13 01:02:57;;;;;;;0.10;0.10;;;;;;;10.05;100.00;101819.59;5019381;28;20030;-72
2022/10/13 01:05:23;;;;;;;0.15;0.15;;;;;;;10.27;100.00;101850.50;5013878;28;20040;-72
2022/10/13 01:07:49;;;;;;;0.10;0.10;;;;;;;10.13;100.00;101822.69;5026140;28;20094;-72
2022/10/13 01:10:26;;;;;;;0.10;0.10;;;;;;;10.32;100.00;101851.97;5025809;28;20026;-73
2022/10/13 01:12:59;;;;;;;0.10;0.10;;;;;;;10.37;100.00;101846.31;5017190;28;20491;-74
2022/10/13 01:15:35;;;;;;;0.10;0.10;;;;;;;10.10;100.00;101820.19;5001293;28;20033;-74
2022/10/13 01:18:38;;;;;;;0.10;0.10;;;;;;;10.18;100.00;101831.31;5011239;28;20486;-72
2022/10/13 01:21:20;;;;;;;0.10;0.10;;;;;;;10.22;100.00;101832.00;5015016;28;20102;-73
2022/10/13 01:24:23;;;;;;;0.10;0.10;;;;;;;10.37;100.00;101843.63;5016553;28;20037;-76
2022/10/13 01:27:00;;;;;;;0.10;0.10;;;;;;;10.58;100.00;101840.59;5016161;28;20383;-74
2022/10/13 01:29:47;;;;;;;0.10;0.10;;;;;;;10.41;100.00;101834.47;5011833;28;20029;-73
2022/10/13 01:32:18;;;;;;;0.10;0.10;;;;;;;10.26;100.00;101835.34;5019999;28;20081;-72
2022/10/13 01:35:13;;;;;;;0.10;0.10;;;;;;;10.52;100.00;101839.16;5017389;28;20037;-74
2022/10/13 01:38:04;;;;;;;0.10;0.10;;;;;;;10.39;100.00;101830.13;5039747;28;20108;-72
2022/10/13 01:40:40;;;;;;;0.10;0.10;;;;;;;10.42;100.00;101829.94;5020791;28;20421;-73
2022/10/13 01:43:16;;;;;;;0.10;0.10;;;;;;;10.24;100.00;101811.28;5004510;28;20032;-72
2022/10/13 01:45:53;;;;;;;0.10;0.10;;;;;;;10.36;100.00;101833.84;5004039;28;20044;-73
2022/10/13 01:48:18;;;;;;;0.20;0.15;;;;;;;10.65;100.00;101836.59;5015984;28;20079;-73
2022/10/13 01:50:44;;;;;;;0.10;0.10;;;;;;;10.58;100.00;101835.22;5003897;28;20476;-72
2022/10/13 01:53:10;;;;;;;0.10;0.10;;;;;;;10.29;100.00;101802.94;5004899;28;20038;-73
2022/10/13 01:55:36;;;;;;;0.10;0.10;;;;;;;10.45;100.00;101827.94;4998951;28;20036;-74
2022/10/13 01:58:01;;;;;;;0.10;0.10;;;;;;;10.51;100.00;101829.38;5002439;28;20073;-73
2022/10/13 02:00:31;;;;;;;0.10;0.10;;;;;;;10.65;100.00;101831.22;5004735;28;20033;-73
2022/10/13 02:03:18;;;;;;;0.10;0.10;;;;;;;10.55;100.00;101828.22;5002579;28;20555;-73
2022/10/13 02:06:13;;;;;;;0.10;0.10;;;;;;;10.36;100.00;101799.78;4999619;28;20036;-72
2022/10/13 02:08:39;;;;;;;;;;;;;;;10.73;100.00;101817.28;5020024;28;20033;-73
2022/10/13 02:11:11;;;;;;;0.10;0.10;;;;;;;10.67;100.00;101807.81;4999663;28;19960;-73
2022/10/13 02:13:40;;;;;;;0.10;0.10;;;;;;;10.61;100.00;101797.44;5001943;28;20619;-73
2022/10/13 02:16:06;;;;;;;0.10;0.10;;;;;;;10.66;100.00;101808.75;5004984;28;20034;-73
2022/10/13 02:18:33;;;;;;;0.15;0.15;;;;;;;10.67;100.00;101806.94;5004817;28;20741;-72
2022/10/13 02:20:59;;;;;;;0.10;0.10;;;;;;;10.62;100.00;101805.38;5006349;28;20061;-73
2022/10/13 02:23:25;;;;;;;0.10;0.10;;;;;;;10.58;100.00;101794.94;5009242;28;20686;-73
2022/10/13 02:25:51;;;;;;;0.10;0.10;;;;;;;10.61;100.00;101786.69;4980812;28;20029;-73
2022/10/13 02:28:16;;;;;;;0.10;0.10;;;;;;;10.70;100.00;101796.88;4996110;28;20042;-73
2022/10/13 02:30:43;;;;;;;0.10;0.10;;;;;;;10.71;100.00;101790.53;5003248;28;20487;-73
2022/10/13 02:33:08;;;;;;;0.10;0.10;;;;;;;10.69;100.00;101792.47;5006344;28;20072;-73
2022/10/13 02:35:34;;;;;;;0.10;0.10;;;;;;;10.77;100.00;101798.19;4984089;28;20487;-73
2022/10/13 02:37:59;;;;;;;0.10;0.10;;;;;;;10.71;100.00;101798.59;5008037;28;20060;-73
2022/10/13 02:40:26;;;;;;;0.10;0.10;;;;;;;10.63;100.00;101763.28;5003625;28;20037;-73
2022/10/13 02:42:51;;;;;;;0.10;0.10;;;;;;;10.74;100.00;101781.41;5006224;28;20025;-73
2022/10/13 02:45:16;;;;;;;0.10;0.10;;;;;;;10.75;100.00;101786.69;4988632;28;20033;-73
2022/10/13 02:47:41;;;;;;;0.10;0.10;;;;;;;10.64;100.00;101775.75;5000555;28;20446;-73
2022/10/13 02:50:07;;;;;;;0.10;0.10;;;;;;;10.81;100.00;101788.13;5001095;28;20092;-73
2022/10/13 02:52:33;;;;;;;0.10;0.10;;;;;;;10.65;100.00;101781.03;5002647;28;20022;-73
2022/10/13 02:54:58;;;;;;;0.10;0.10;;;;;;;10.55;100.00;101770.97;5001373;28;20463;-72
2022/10/13 02:57:24;;;;;;;0.10;0.10;;;;;;;10.52;100.00;101757.72;4998583;28;20048;-73
2022/10/13 02:59:49;;;;;;;0.20;0.20;;;;;;;10.72;100.00;101776.16;4985295;28;20079;-74
2022/10/13 03:02:14;;;;;;;0.10;0.10;;;;;;;10.60;100.00;101760.81;4988700;28;20496;-73
2022/10/13 03:04:40;;;;;;;0.03;0.03;;;;;;;10.60;100.00;101774.22;4983726;28;20034;-73
2022/10/13 03:07:06;;;;;;;0.10;0.10;;;;;;;10.48;100.00;101752.53;5000768;28;20052;-73
2022/10/13 03:09:31;;;;;;;0.10;0.10;;;;;;;10.50;100.00;101752.47;4982681;28;20415;-73
2022/10/13 03:11:56;;;;;;;0.10;0.10;;;;;;;10.49;100.00;101740.00;4998794;28;20033;-73
2022/10/13 03:14:21;;;;;;;0.10;0.10;;;;;;;10.39;100.00;101730.78;4984215;28;20421;-73
2022/10/13 03:16:47;;;;;;;0.00;0.00;;;;;;;10.72;100.00;101764.53;5003149;28;20387;-73
2022/10/13 03:19:12;;;;;;;0.10;0.10;;;;;;;10.68;100.00;101757.63;5002449;28;20440;-73
2022/10/13 03:21:38;;;;;;;0.10;0.10;;;;;;;10.71;100.00;101761.00;5005860;28;20058;-73
2022/10/13 03:24:07;;;;;;;0.10;0.10;;;;;;;10.68;100.00;101761.19;5000224;28;20222;-72
2022/10/13 03:26:33;;;;;;;0.10;0.10;;;;;;;10.86;100.00;101758.28;4999725;28;20036;-73
2022/10/13 03:28:59;;;;;;;0.10;0.10;;;;;;;10.79;100.00;101757.81;4983838;28;20464;-73
2022/10/13 03:31:24;;;;;;;0.10;0.10;;;;;;;10.86;100.00;101756.44;5007113;28;20041;-73
2022/10/13 03:33:50;;;;;;;0.00;0.00;;;;;;;10.77;100.00;101752.53;5007947;28;20053;-72
2022/10/13 03:36:16;;;;;;;0.20;0.20;;;;;;;10.57;100.00;101728.78;5002772;28;20034;-72
2022/10/13 03:38:41;;;;;;;0.20;0.20;;;;;;;10.72;100.00;101743.91;5007072;28;20468;-73
2022/10/13 03:41:09;;;;;;;0.20;0.20;;;;;;;10.84;100.00;101758.38;5008236;28;20503;-72
2022/10/13 03:43:35;;;;;;;0.10;0.10;;;;;;;10.94;100.00;101754.13;5007695;28;20029;-73
2022/10/13 03:46:02;;;;;;;0.10;0.10;;;;;;;10.82;100.00;101752.25;4987460;28;20036;-72
2022/10/13 03:48:28;;;;;;;0.10;0.10;;;;;;;10.72;100.00;101754.66;4999287;28;20034;-72
2022/10/13 03:50:53;;;;;;;0.10;0.10;;;;;;;10.74;100.00;101741.97;4996934;28;20043;-72
2022/10/13 03:53:19;;;;;;;0.10;0.10;;;;;;;10.79;100.00;101753.28;5003490;28;20772;-72
2022/10/13 03:55:52;;;;;;;0.13;0.13;;;;;;;10.86;100.00;101752.91;5002815;28;22798;-72
2022/10/13 03:58:18;;;;;;;0.10;0.10;;;;;;;10.88;100.00;101746.44;5005093;28;20034;-73
2022/10/13 04:00:44;;;;;;;0.10;0.10;;;;;;;10.90;100.00;101741.84;5002099;28;20034;-73
2022/10/13 04:03:09;;;;;;;0.10;0.10;;;;;;;10.84;100.00;101726.16;5003201;28;20397;-72
2022/10/13 04:05:35;;;;;;;0.10;0.10;;;;;;;10.88;100.00;101745.59;4985062;28;20036;-72
2022/10/13 04:08:00;;;;;;;0.13;0.13;;;;;;;10.85;100.00;101740.44;5002498;28;20022;-72
2022/10/13 04:10:25;;;;;;;0.20;0.20;;;;;;;10.62;100.00;101719.44;5001226;28;20034;-73
2022/10/13 04:12:51;;;;;;;0.10;0.10;;;;;;;10.80;100.00;101744.28;4996305;28;20112;-73
2022/10/13 04:15:16;;;;;;;0.10;0.10;;;;;;;10.82;100.00;101725.38;5000838;28;20092;-73
2022/10/13 04:17:42;;;;;;;0.10;0.10;;;;;;;10.99;100.00;101726.09;5001159;28;20523;-73
2022/10/13 04:20:08;;;;;;;0.10;0.10;;;;;;;10.90;100.00;101730.25;5000201;28;20034;-73
2022/10/13 04:22:33;;;;;;;0.10;0.10;;;;;;;10.80;100.00;101716.56;5001321;28;20069;-73
2022/10/13 04:24:58;;;;;;;0.10;0.10;;;;;;;10.85;100.00;101714.44;5000189;28;20096;-72
2022/10/13 04:27:25;;;;;;;0.10;0.10;;;;;;;10.79;100.00;101690.66;4991356;28;20036;-73
2022/10/13 04:29:50;;;;;;;0.10;0.10;;;;;;;11.05;100.00;101712.25;4997094;28;20026;-74
2022/10/13 04:32:16;;;;;;;0.10;0.10;;;;;;;10.94;100.00;101708.44;5015078;28;20064;-73
2022/10/13 04:34:41;;;;;;;0.10;0.10;;;;;;;10.80;100.00;101678.94;5013839;28;20056;-74
2022/10/13 04:37:06;;;;;;;0.10;0.10;;;;;;;10.91;100.00;101707.78;4997415;28;20120;-72
2022/10/13 04:39:32;;;;;;;0.10;0.10;;;;;;;10.98;100.00;101711.81;5013776;28;20365;-73
2022/10/13 04:41:57;;;;;;;0.10;0.10;;;;;;;10.98;100.00;101722.56;4999566;28;20030;-73
2022/10/13 04:44:23;;;;;;;0.10;0.10;;;;;;;10.93;100.00;101712.09;4999037;28;20132;-73
2022/10/13 04:46:48;;;;;;;0.10;0.10;;;;;;;10.92;100.00;101710.38;5017764;28;20037;-73
2022/10/13 04:49:15;;;;;;;0.10;0.10;;;;;;;10.85;100.00;101711.75;4996391;28;20034;-72
2022/10/13 04:51:40;;;;;;;0.10;0.10;;;;;;;10.80;100.00;101693.22;5000620;28;20022;-77
2022/10/13 04:54:05;;;;;;;0.10;0.10;;;;;;;10.76;100.00;101685.47;5004182;28;20040;-75
2022/10/13 04:56:31;;;;;;;0.10;0.10;;;;;;;10.91;100.00;101710.47;5002582;28;20479;-72
2022/10/13 04:58:56;;;;;;;0.10;0.10;;;;;;;10.89;100.00;101691.75;4964434;28;1046502;-75
2022/10/13 05:01:23;;;;;;;0.10;0.10;;;;;;;10.91;100.00;101672.88;5001228;28;20076;-76
2022/10/13 05:03:53;;;;;;;0.10;0.10;;;;;;;10.70;100.00;101676.00;5000608;28;20030;-74
2022/10/13 05:06:22;;;;;;;0.10;0.10;;;;;;;10.84;100.00;101701.97;4998984;28;20038;-78
2022/10/13 05:08:47;;;;;;;0.10;0.10;;;;;;;10.73;100.00;101689.22;4998828;28;20044;-80
2022/10/13 05:11:13;;;;;;;0.10;0.10;;;;;;;10.75;100.00;101703.41;5013186;28;20034;-75
2022/10/13 05:13:38;;;;;;;0.10;0.10;;;;;;;10.74;100.00;101671.28;5009051;28;20389;-78
2022/10/13 05:16:11;;;;;;;0.10;0.10;;;;;;;10.76;100.00;101706.97;5009938;28;20117;-76
2022/10/13 05:18:37;;;;;;;0.10;0.10;;;;;;;10.85;100.00;101708.19;5007902;28;20033;-76
2022/10/13 05:21:13;;;;;;;0.10;0.10;;;;;;;10.86;100.00;101713.44;4993059;28;20528;-78
2022/10/13 05:23:39;;;;;;;0.10;0.10;;;;;;;10.98;100.00;101709.13;5020365;28;20041;-78
2022/10/13 05:26:10;;;;;;;0.17;0.17;;;;;;;10.89;100.00;101707.88;5007348;28;20034;-77
2022/10/13 05:28:36;;;;;;;0.10;0.10;;;;;;;10.78;100.00;101707.72;5011437;28;20026;-77
2022/10/13 05:31:31;;;;;;;0.10;0.10;;;;;;;10.70;100.00;101688.56;5007294;28;20083;-77
2022/10/13 05:33:57;;;;;;;0.10;0.10;;;;;;;10.71;100.00;101696.53;4982701;28;20038;-77
2022/10/13 05:36:25;;;;;;;0.10;0.10;;;;;;;10.80;100.00;101695.06;5008818;28;20083;-76
2022/10/13 05:38:56;;;;;;;0.10;0.10;;;;;;;10.67;100.00;101712.94;5007055;28;20029;-76
2022/10/13 05:41:23;;;;;;;0.10;0.10;;;;;;;10.59;100.00;101711.63;5006543;28;20116;-77
2022/10/13 05:43:50;;;;;;;0.10;0.10;;;;;;;10.59;100.00;101703.56;5003081;28;20026;-77
2022/10/13 05:46:15;;;;;;;0.15;0.15;;;;;;;10.63;100.00;101709.59;5004011;28;20632;-77
2022/10/13 05:48:41;;;;;;;0.10;0.10;;;;;;;10.69;100.00;101717.25;5005515;28;20022;-77
2022/10/13 05:51:10;;;;;;;0.10;0.10;;;;;;;10.56;100.00;101684.97;4999258;28;20075;-75
2022/10/13 05:53:39;;;;;;;0.20;0.20;;;;;;;10.70;100.00;101705.56;4999787;28;20671;-78
2022/10/13 05:56:09;;;;;;;0.10;0.10;;;;;;;10.52;100.00;101694.16;5001886;28;20056;-76
2022/10/13 05:58:37;;;;;;;0.10;0.10;;;;;;;10.75;100.00;101719.53;5001858;28;20052;-76
2022/10/13 06:01:05;;;;;;;0.10;0.10;;;;;;;10.49;100.00;101687.16;5006646;28;20485;-76
2022/10/13 06:03:31;;;;;;;0.10;0.10;;;;;;;10.49;100.00;101691.66;5020936;28;20132;-78
2022/10/13 06:05:56;;;;;;;0.10;0.10;;;;;;;10.60;100.00;101696.34;5002046;28;20040;-78
2022/10/13 06:08:21;;;;;;;0.20;0.20;;;;;;;10.39;100.00;101672.59;5006832;28;20131;-75
2022/10/13 06:10:47;;;;;;;0.10;0.10;;;;;;;10.69;100.00;101693.09;5002910;28;20037;-76
2022/10/13 06:13:12;;;;;;;0.10;0.10;;;;;;;10.40;100.00;101652.84;4998614;28;20034;-76
2022/10/13 06:15:37;;;;;;;0.10;0.10;;;;;;;10.46;100.00;101660.50;5020334;28;20029;-79
2022/10/13 06:18:07;;;;;;;0.10;0.10;;;;;;;10.54;100.00;101657.34;5005463;28;20065;-77
2022/10/13 06:20:32;;;;;;;0.10;0.10;;;;;;;10.81;100.00;101683.38;5006523;28;20030;-77
2022/10/13 06:22:57;;;;;;;0.10;0.10;;;;;;;10.82;100.00;101687.78;5004802;28;20041;-76
2022/10/13 06:25:23;;;;;;;0.10;0.10;;;;;;;10.73;100.00;101667.72;5001221;28;20065;-78
2022/10/13 06:27:48;;;;;;;0.10;0.10;;;;;;;10.71;100.00;101661.63;5007059;28;20100;-78
2022/10/13 06:30:13;;;;;;;0.10;0.10;;;;;;;10.87;100.00;101691.00;4986560;28;20149;-76
2022/10/13 06:32:39;;;;;;;0.10;0.10;;;;;;;10.65;100.00;101654.81;5009543;28;20037;-77
2022/10/13 06:35:05;;;;;;;0.10;0.10;;;;;;;10.79;100.00;101686.13;5004605;28;20278;-77
2022/10/13 06:37:30;;;;;;;0.20;0.20;;;;;;;11.09;100.00;101703.03;5009042;28;20025;-81
2022/10/13 06:39:55;;;;;;;0.10;0.10;;;;;;;10.79;100.00;101669.16;5006742;28;20042;-78
2022/10/13 06:42:21;;;;;;;0.10;0.10;;;;;;;11.15;100.00;101688.31;4994481;28;20060;-79
2022/10/13 06:44:46;;;;;;;0.10;0.10;;;;;;;11.09;100.00;101684.22;4989565;28;20029;-76
2022/10/13 06:47:12;;;;;;;0.10;0.10;;;;;;;11.09;100.00;101682.38;5005355;28;20424;-77
2022/10/13 06:49:37;;;;;;;0.10;0.10;;;;;;;11.06;100.00;101679.06;5007448;28;20128;-76
2022/10/13 06:52:03;;;;;;;0.10;0.10;;;;;;;11.11;100.00;101647.38;5005795;28;20113;-77
2022/10/13 06:54:29;;;;;;;0.10;0.10;;;;;;;11.11;100.00;101666.19;5009653;28;20079;-76
2022/10/13 06:56:54;;;;;;;0.10;0.10;;;;;;;11.25;100.00;101684.06;4997399;28;20065;-76
2022/10/13 06:59:20;;;;;;;0.10;0.10;;;;;;;11.01;100.00;101622.06;5004942;28;20045;-76
2022/10/13 07:01:46;;;;;;;0.10;0.10;;;;;;;11.37;100.00;101677.00;5016502;28;20472;-75
2022/10/13 07:04:12;;;;;;;0.10;0.10;;;;;;;11.47;100.00;101677.22;4988539;28;20034;-77
2022/10/13 07:06:37;;;;;;;0.10;0.10;;;;;;;11.34;100.00;101667.28;5007688;28;20022;-76
2022/10/13 07:09:07;;;;;;;0.20;0.20;;;;;;;11.52;100.00;101681.31;5002451;28;20038;-77
2022/10/13 07:11:33;;;;;;;0.10;0.10;;;;;;;11.50;100.00;101680.56;5005059;28;20034;-77
2022/10/13 07:13:58;;;;;;;0.10;0.10;;;;;;;11.51;100.00;101690.34;5004679;28;20053;-80
2022/10/13 07:16:24;;;;;;;0.20;0.20;;;;;;;11.47;100.00;101686.13;5005758;28;20061;-81
2022/10/13 07:18:49;;;;;;;0.10;0.10;;;;;;;11.54;100.00;101654.31;5003015;28;20136;-80
2022/10/13 07:21:15;;;;;;;0.10;0.10;;;;;;;11.56;100.00;101676.56;5004895;28;20407;-78
2022/10/13 07:23:40;;;;;;;0.10;0.10;;;;;;;11.37;100.00;101647.41;5009062;28;20108;-79
2022/10/13 07:26:09;;;;;;;0.10;0.10;;;;;;;11.42;100.00;101658.69;5007338;28;20070;-77
2022/10/13 07:28:35;;;;;;;0.13;0.13;;;;;;;11.48;100.00;101663.66;5001825;28;20022;-80
2022/10/13 07:31:15;;;;;;;0.10;0.10;;;;;;;11.54;100.00;101679.38;5007080;28;20030;-79
2022/10/13 07:33:42;;;;;;;0.10;0.10;;;;;;;11.62;100.00;101680.69;5001767;28;20025;-80
2022/10/13 07:36:08;;;;;;;0.10;0.10;;;;;;;11.53;100.00;101658.84;5005623;28;20029;-80
2022/10/13 07:38:33;;;;;;;0.10;0.10;;;;;;;11.56;100.00;101657.75;5005211;28;20033;-78
2022/10/13 07:41:00;;;;;;;0.10;0.10;;;;;;;11.65;100.00;101659.81;5004576;28;20037;-77
2022/10/13 07:43:26;;;;;;;0.10;0.10;;;;;;;11.56;100.00;101655.06;5003763;28;20030;-77
2022/10/13 07:45:51;;;;;;;0.10;0.10;;;;;;;11.75;100.00;101670.78;5007174;28;20056;-81
2022/10/13 07:48:16;;;;;;;0.10;0.10;;;;;;;11.57;100.00;101639.81;4985254;28;20061;-80
2022/10/13 07:50:42;;;;;;;0.10;0.10;;;;;;;11.73;100.00;101667.34;5000092;28;20068;-80
2022/10/13 07:53:07;;;;;;;0.10;0.10;;;;;;;11.67;100.00;101657.88;4988704;28;20033;-80
2022/10/13 07:55:33;;;;;;;0.03;0.03;;;;;;;11.49;100.00;101643.03;5001430;28;20628;-77
2022/10/13 07:58:01;;;;;;;0.10;0.10;;;;;;;11.83;100.00;101687.28;5005054;28;20048;-79
2022/10/13 08:00:26;;;;;;;0.10;0.10;;;;;;;11.62;100.00;101653.78;5004258;28;20026;-77
2022/10/13 08:02:52;;;;;;;0.10;0.10;;;;;;;11.88;100.00;101668.09;5007006;28;20036;-79
2022/10/13 08:05:17;;;;;;;0.10;0.10;;;;;;;11.94;100.00;101680.25;5004439;28;20029;-76
2022/10/13 08:07:42;;;;;;;0.10;0.10;;;;;;;11.96;100.00;101670.25;4992193;28;20109;-78
2022/10/13 08:10:08;;;;;;;0.10;0.10;;;;;;;11.78;100.00;101653.59;5002603;28;20034;-79
2022/10/13 08:12:35;;;;;;;0.10;0.10;;;;;;;12.13;100.00;101683.41;4998843;28;20136;-80
2022/10/13 08:15:00;;;;;;;0.10;0.10;;;;;;;12.05;100.00;101682.25;4988435;28;20036;-80
2022/10/13 08:17:26;;;;;;;0.10;0.10;;;;;;;11.95;100.00;101664.03;5004670;28;20037;-77
2022/10/13 08:19:51;;;;;;;0.10;0.10;;;;;;;12.04;100.00;101665.22;4988217;28;20022;-77
2022/10/13 08:22:16;;;;;;;0.10;0.10;;;;;;;11.91;100.00;101656.28;5002880;28;20076;-77
2022/10/13 08:24:42;;;;;;;0.10;0.10;;;;;;;12.11;100.00;101665.63;5004895;28;20036;-78
2022/10/13 08:27:10;;;;;;;0.10;0.10;;;;;;;12.21;100.00;101688.25;5001305;28;22229;-76
2022/10/13 08:29:36;;;;;;;0.10;0.10;;;;;;;12.11;100.00;101653.06;5008239;28;20042;-78
2022/10/13 08:32:01;;;;;;;0.10;0.10;;;;;;;12.27;100.00;101673.47;5004417;28;20026;-78
2022/10/13 08:34:26;;;;;;;0.05;0.05;;;;;;;12.19;100.00;101646.25;5000654;28;20057;-76
2022/10/13 08:36:54;;;;;;;0.10;0.10;;;;;;;12.52;100.00;101664.50;5002497;28;20484;-77
2022/10/13 08:39:21;;;;;;;0.10;0.10;;;;;;;12.56;100.00;101660.63;4999383;28;20039;-73
2022/10/13 08:41:47;;;;;;;0.10;0.10;;;;;;;12.60;100.00;101640.53;4995217;28;20033;-77
2022/10/13 08:44:33;;;;;;;0.10;0.10;;;;;;;12.76;100.00;101666.34;4999012;28;20531;-77
2022/10/13 08:47:11;;;;;;;0.10;0.10;;;;;;;12.75;100.00;101653.84;4997180;28;20117;-80
2022/10/13 08:49:36;;;;;;;0.10;0.10;;;;;;;12.79;100.00;101641.88;4988598;28;20030;-76
2022/10/13 08:52:03;;;;;;;0.10;0.10;;;;;;;12.90;100.00;101651.84;5019626;28;20430;-79
2022/10/13 08:54:29;;;;;;;0.10;0.10;;;;;;;13.10;100.00;101669.25;4986399;28;20022;-78
2022/10/13 08:56:54;;;;;;;0.10;0.10;;;;;;;13.33;100.00;101653.97;4987807;28;20084;-77
2022/10/13 08:59:20;;;;;;;0.10;0.10;;;;;;;13.61;100.00;101661.84;4987004;28;20076;-81
2022/10/13 09:01:48;;;;;;;0.10;0.10;;;;;;;13.62;100.00;101666.25;5002969;28;20468;-78
2022/10/13 09:04:38;;;;;;;0.15;0.15;;;;;;;13.43;100.00;101647.91;5003481;28;20037;-73
2022/10/13 09:07:22;;;;;;;0.10;0.10;;;;;;;13.42;100.00;101657.00;5005108;28;20030;-75
2022/10/13 09:09:52;;;;;;;0.00;0.00;;;;;;;13.35;99.99;101654.72;5015643;28;20050;-78
2022/10/13 09:12:20;;;;;;;0.10;0.10;;;;;;;13.38;98.87;101639.28;5004291;28;20030;-73
2022/10/13 09:15:06;;;;;;;0.10;0.10;;;;;;;13.29;100.00;101665.13;5007860;28;20123;-77
2022/10/13 09:17:32;;;;;;;0.10;0.10;;;;;;;13.63;100.00;101654.47;4990065;28;20026;-77
2022/10/13 09:20:03;;;;;;;0.20;0.20;;;;;;;13.42;100.00;101663.22;5004165;28;20076;-78
2022/10/13 09:22:36;;;;;;;0.10;0.10;;;;;;;13.39;100.00;101660.72;5007750;28;20576;-78
2022/10/13 09:25:05;;;;;;;0.10;0.10;;;;;;;13.50;100.00;101660.81;5021385;28;20298;-75
2022/10/13 09:27:44;;;;;;;0.10;0.10;;;;;;;13.24;98.82;101621.47;5007953;28;20053;-76
2022/10/13 09:30:40;;;;;;;0.10;0.10;;;;;;;13.43;100.00;101650.63;4997355;28;20030;-79
2022/10/13 09:33:08;;;;;;;0.10;0.10;;;;;;;13.50;99.96;101655.41;5013293;28;20113;-84
2022/10/13 09:35:59;;;;;;;0.10;0.10;;;;;;;13.47;100.00;101661.03;5000616;28;20033;-77
2022/10/13 09:38:25;;;;;;;0.10;0.10;;;;;;;13.34;100.00;101627.88;4995218;28;20041;-76
2022/10/13 09:41:04;;;;;;;0.10;0.10;;;;;;;13.54;99.38;101649.78;5000004;28;20097;-76
2022/10/13 09:43:31;;;;;;;0.10;0.10;;;;;;;13.60;99.11;101642.06;5003610;28;20029;-79
2022/10/13 09:45:57;;;;;;;0.00;0.00;;;;;;;13.34;99.91;101636.81;4998363;28;20034;-77
2022/10/13 09:48:26;;;;;;;0.10;0.10;;;;;;;13.49;99.48;101645.59;5006373;28;20158;-77
2022/10/13 09:50:53;;;;;;;0.10;0.10;;;;;;;13.22;100.00;101634.22;4994549;28;20037;-77
2022/10/13 09:53:34;;;;;;;0.10;0.10;;;;;;;13.17;100.00;101626.47;4995432;28;20044;-78
2022/10/13 09:56:08;;;;;;;0.10;0.10;;;;;;;13.13;100.00;101623.13;5003096;28;20481;-77
2022/10/13 09:58:36;;;;;;;0.10;0.10;;;;;;;13.29;100.00;101625.53;5005073;28;20278;-77
2022/10/13 10:01:02;;;;;;;0.10;0.10;;;;;;;13.24;100.00;101637.66;4983562;28;20437;-77
2022/10/13 10:03:33;;;;;;;0.10;0.10;;;;;;;13.23;100.00;101615.22;4993227;28;20022;-75
2022/10/13 10:06:10;;;;;;;0.10;0.10;;;;;;;13.23;100.00;101630.53;5022476;28;20030;-76
2022/10/13 10:08:50;;;;;;;0.13;0.13;;;;;;;13.52;100.00;101641.78;4983421;28;20036;-76
2022/10/13 10:11:27;;;;;;;0.10;0.10;;;;;;;13.49;100.00;101631.28;5005695;28;20022;-80
2022/10/13 10:13:52;;;;;;;0.10;0.10;;;;;;;13.41;100.00;101629.16;5004059;28;20049;-74
2022/10/13 10:16:29;;;;;;;0.10;0.10;;;;;;;13.54;100.00;101642.53;5006971;28;20030;-77
2022/10/13 10:19:29;;;;;;;0.00;0.00;;;;;;;13.38;100.00;101640.13;5006701;28;20033;-75
2022/10/13 10:22:27;;;;;;;0.10;0.10;;;;;;;13.44;100.00;101638.84;4990459;28;20065;-78
2022/10/13 10:25:00;;;;;;;0.10;0.10;;;;;;;13.42;100.00;101630.03;5003157;28;20041;-77
2022/10/13 10:27:28;;;;;;;0.10;0.10;;;;;;;13.41;100.00;101633.69;5007506;28;20488;-75
2022/10/13 10:30:15;;;;;;;0.10;0.10;;;;;;;13.38;100.00;101637.44;5005136;28;20033;-75
2022/10/13 10:33:04;;;;;;;0.10;0.10;;;;;;;13.35;100.00;101640.41;5006848;28;20468;-75
2022/10/13 10:35:55;;;;;;;0.10;0.10;;;;;;;12.89;100.00;101588.16;5005991;28;20041;-75
2022/10/13 10:38:38;;;;;;;0.03;0.03;;;;;;;13.19;100.00;101643.41;4978403;28;20592;-73
2022/10/13 10:41:21;;;;;;;0.10;0.10;;;;;;;12.79;100.00;101605.97;5007029;28;20037;-71
2022/10/13 10:44:00;;;;;;;0.10;0.10;;;;;;;12.89;100.00;101642.91;5004767;28;20299;-72
2022/10/13 10:46:29;;;;;;;0.05;0.05;;;;;;;12.84;100.00;101623.53;5006905;28;20128;-72
2022/10/13 10:48:58;;;;;;;0.10;0.10;;;;;;;12.92;100.00;101631.03;5008823;28;20035;-72
2022/10/13 10:51:30;;;;;;;0.10;0.10;;;;;;;12.87;100.00;101628.66;4986724;28;20109;-72
2022/10/13 10:54:14;;;;;;;0.10;0.10;;;;;;;12.90;100.00;101635.69;5006685;28;20026;-72
2022/10/13 10:56:43;;;;;;;0.10;0.10;;;;;;;12.88;100.00;101635.78;5007358;28;20036;-72
2022/10/13 10:59:36;;;;;;;0.10;0.10;;;;;;;12.63;100.00;101609.84;5006660;28;20351;-72
2022/10/13 11:02:07;;;;;;;0.10;0.10;;;;;;;12.77;100.00;101640.25;5021266;28;20037;-72
2022/10/13 11:04:41;;;;;;;0.10;0.10;;;;;;;12.68;100.00;101626.53;5005853;28;20544;-74
2022/10/13 11:07:09;;;;;;;;;;;;;;;12.58;100.00;101626.31;5007241;28;20041;-72
2022/10/13 11:09:40;;;;;;;0.00;0.00;;;;;;;12.59;100.00;101613.72;5007871;28;20272;-72
2022/10/13 11:12:17;;;;;;;0.10;0.10;;;;;;;12.58;100.00;101607.47;5006698;28;20108;-72
2022/10/13 11:14:45;;;;;;;0.15;0.15;;;;;;;12.63;100.00;101595.47;5007496;28;20511;-72
2022/10/13 11:17:17;;;;;;;0.10;0.10;;;;;;;12.58;100.00;101610.16;5004510;28;20040;-72
2022/10/13 11:19:42;;;;;;;0.10;0.10;;;;;;;12.45;100.00;101593.19;5004340;28;20037;-72
2022/10/13 11:22:18;;;;;;;0.20;0.20;;;;;;;12.46;100.00;101613.75;5005449;28;20033;-72
2022/10/13 11:24:54;;;;;;;0.20;0.20;;;;;;;12.52;100.00;101601.66;5004963;28;20026;-72
2022/10/13 11:27:37;;;;;;;0.10;0.10;;;;;;;12.66;100.00;101615.00;5006733;28;20517;-72